Time;durP1;ratioP1;P1;durP2;ratioP2;P2;SDS_P1;SDS_P2;PMS_P1;PMS_P2;Temp;Humidity;BMP_temperature;BMP_pressure;BME280_temperature;BME280_humidity;BME280_pressure;Samples;Min_cycle;Max_cycle;Signal;HPM_P1;HPM_P2
2021/12/31 00:00:40;;;;;;;7.70;2.33;;;;;;;19.10;58.63;101023.28;5070041;28;20175;-61
2021/12/31 00:03:05;;;;;;;9.00;3.33;;;;;;;19.07;58.61;101018.28;5071866;28;20175;-61
2021/12/31 00:05:31;;;;;;;6.77;2.37;;;;;;;19.08;58.68;101028.56;5070993;28;20518;-61
2021/12/31 00:07:56;;;;;;;11.83;2.57;;;;;;;19.06;58.84;101028.06;5070891;28;21011;-61
2021/12/31 00:10:22;;;;;;;10.50;2.70;;;;;;;19.08;58.63;101019.13;5071803;28;20194;-61
2021/12/31 00:12:47;;;;;;;7.80;2.63;;;;;;;19.09;58.59;101020.78;5069596;28;20233;-61
2021/12/31 00:15:13;;;;;;;8.10;2.50;;;;;;;19.09;58.66;101020.78;5071718;28;20175;-61
2021/12/31 00:17:39;;;;;;;6.60;2.30;;;;;;;19.07;58.56;101024.00;5072349;28;20216;-61
2021/12/31 00:20:11;;;;;;;8.47;3.13;;;;;;;19.05;59.14;101023.56;5070694;28;20231;-62
2021/12/31 00:25:20;;;;;;;9.90;2.80;;;;;;;19.06;58.84;101019.50;5069884;28;20561;-62
2021/12/31 00:27:46;;;;;;;11.97;2.83;;;;;;;19.06;59.25;101022.34;5071173;28;20520;-62
2021/12/31 00:30:11;;;;;;;7.00;2.70;;;;;;;19.06;58.89;101016.63;5070528;28;20202;-62
2021/12/31 00:32:37;;;;;;;10.17;2.63;;;;;;;19.02;59.04;101015.69;5070599;28;20606;-62
2021/12/31 00:35:03;;;;;;;11.13;2.33;;;;;;;19.06;58.77;101021.53;5068952;28;20191;-62
2021/12/31 00:37:30;;;;;;;11.80;2.83;;;;;;;19.06;58.34;101010.91;5069969;28;20274;-61
2021/12/31 00:39:55;;;;;;;10.80;2.67;;;;;;;19.05;58.64;101017.84;5068697;28;20421;-61
2021/12/31 00:42:21;;;;;;;10.10;2.30;;;;;;;19.06;58.53;101013.75;5053214;28;20421;-61
2021/12/31 00:44:46;;;;;;;10.13;2.53;;;;;;;19.04;58.92;101016.19;5071215;28;20255;-61
2021/12/31 00:47:12;;;;;;;11.03;2.70;;;;;;;19.04;58.98;101016.19;5069967;28;20226;-61
2021/12/31 00:49:37;;;;;;;13.03;2.80;;;;;;;19.03;58.87;101007.94;5069807;28;20187;-61
2021/12/31 00:52:03;;;;;;;10.17;2.60;;;;;;;19.04;58.93;101006.75;5080095;28;20185;-61
2021/12/31 00:54:28;;;;;;;10.40;2.73;;;;;;;19.04;59.18;100989.56;5086096;28;20206;-61
2021/12/31 00:56:59;;;;;;;6.60;2.53;;;;;;;19.04;58.77;101001.88;5069656;28;20631;-61
2021/12/31 00:59:25;;;;;;;10.37;2.90;;;;;;;19.03;59.09;100999.38;5069893;28;20321;-61
2021/12/31 01:01:50;;;;;;;6.87;2.47;;;;;;;19.03;58.77;100994.50;5070486;28;20487;-61
2021/12/31 01:04:21;;;;;;;12.60;2.30;;;;;;;19.07;58.38;100983.94;5070999;28;20175;-61
2021/12/31 01:06:47;;;;;;;5.43;2.00;;;;;;;19.03;58.87;100994.50;5069200;28;20262;-61
2021/12/31 01:09:12;;;;;;;5.87;2.20;;;;;;;19.03;58.39;100994.50;5063496;28;20445;-61
2021/12/31 01:11:41;;;;;;;8.07;2.83;;;;;;;19.04;58.72;100996.16;5069205;28;20182;-61
2021/12/31 01:14:15;;;;;;;6.73;2.40;;;;;;;19.04;58.47;100995.28;5069708;28;20183;-61
2021/12/31 01:16:47;;;;;;;9.10;2.50;;;;;;;19.03;58.64;100997.34;5054077;28;20446;-61
2021/12/31 01:21:38;;;;;;;7.93;2.23;;;;;;;19.01;58.72;100996.88;5070503;28;20494;-62
2021/12/31 01:24:04;;;;;;;6.20;2.00;;;;;;;19.02;58.67;101001.38;5070352;28;20578;-62
2021/12/31 01:26:31;;;;;;;5.70;2.73;;;;;;;19.04;58.53;101006.75;5064183;28;20659;-61
2021/12/31 01:28:56;;;;;;;9.23;2.20;;;;;;;19.03;58.44;101005.09;5069236;28;20544;-61
2021/12/31 01:31:24;;;;;;;10.10;2.40;;;;;;;19.02;58.41;101009.97;5067914;28;20434;-61
2021/12/31 01:33:49;;;;;;;7.97;2.30;;;;;;;19.02;58.68;101003.44;5070439;28;20187;-61
2021/12/31 01:36:15;;;;;;;7.50;2.33;;;;;;;19.00;58.57;101002.94;5069999;28;20421;-61
2021/12/31 01:38:41;;;;;;;8.00;3.37;;;;;;;19.01;58.95;101002.59;5068881;28;20441;-61
2021/12/31 01:41:06;;;;;;;5.07;2.10;;;;;;;19.02;58.69;101014.88;5071070;28;20540;-61
2021/12/31 01:43:32;;;;;;;7.20;2.40;;;;;;;19.02;58.60;101009.97;5069321;28;20647;-61
2021/12/31 01:45:59;;;;;;;8.87;2.60;;;;;;;18.98;58.58;101000.47;5069672;28;20182;-61
2021/12/31 01:48:33;;;;;;;6.57;2.33;;;;;;;19.00;58.91;101005.81;5068501;28;20183;-61
2021/12/31 01:50:58;;;;;;;7.83;2.53;;;;;;;19.03;58.54;101008.78;5061677;28;20800;-61
2021/12/31 01:53:26;;;;;;;6.83;2.03;;;;;;;19.00;58.64;101008.69;5068756;28;20445;-61
2021/12/31 01:55:53;;;;;;;10.63;2.40;;;;;;;18.99;58.32;101004.16;5068671;28;20199;-61
2021/12/31 01:58:22;;;;;;;7.80;2.30;;;;;;;18.97;58.94;101007.38;5051784;28;20433;-61
2021/12/31 02:00:48;;;;;;;8.33;2.77;;;;;;;19.00;58.67;101011.53;5069176;28;20441;-61
2021/12/31 02:03:13;;;;;;;4.90;2.07;;;;;;;18.97;58.62;101007.38;5069123;28;20429;-61
2021/12/31 02:05:39;;;;;;;8.33;2.70;;;;;;;19.02;58.40;101012.03;5050333;28;20297;-61
2021/12/31 02:08:04;;;;;;;7.23;2.60;;;;;;;18.99;58.62;101013.59;5069126;28;20207;-61
2021/12/31 02:10:30;;;;;;;5.53;2.00;;;;;;;18.98;58.70;101011.94;5068851;28;20183;-61
2021/12/31 02:12:55;;;;;;;8.77;2.77;;;;;;;18.96;58.78;101007.78;5067460;28;20198;-61
2021/12/31 02:15:21;;;;;;;6.37;2.20;;;;;;;18.97;58.81;101001.66;5070016;28;20630;-61
2021/12/31 02:17:48;;;;;;;6.63;2.30;;;;;;;19.02;58.30;101006.28;5069466;28;20172;-61
2021/12/31 02:20:14;;;;;;;7.67;1.93;;;;;;;18.97;58.70;101010.25;5083747;28;20178;-61
2021/12/31 02:22:42;;;;;;;10.33;2.80;;;;;;;18.97;58.33;101004.50;5076466;28;20924;-62
2021/12/31 02:25:08;;;;;;;6.23;1.90;;;;;;;18.98;58.77;101002.50;5069044;28;20425;-61
2021/12/31 02:27:39;;;;;;;6.10;2.10;;;;;;;18.98;58.51;100993.91;5068969;28;20535;-61
2021/12/31 02:30:06;;;;;;;7.30;1.90;;;;;;;18.98;58.89;101002.50;5070089;28;20171;-61
2021/12/31 02:32:32;;;;;;;7.93;2.30;;;;;;;19.00;58.33;100994.38;5068906;28;20770;-61
2021/12/31 02:34:57;;;;;;;8.93;2.50;;;;;;;18.97;58.52;100987.34;5068258;28;20429;-61
2021/12/31 02:37:22;;;;;;;5.20;1.53;;;;;;;18.94;58.75;100985.25;5066835;28;20179;-61
2021/12/31 02:39:48;;;;;;;5.77;2.00;;;;;;;18.97;58.98;100984.47;5067952;28;20193;-61
2021/12/31 02:42:13;;;;;;;8.73;2.37;;;;;;;18.98;58.46;100983.31;5068637;28;20593;-61
2021/12/31 02:44:39;;;;;;;8.40;2.07;;;;;;;18.98;58.62;100982.47;5068181;28;20193;-61
2021/12/31 02:47:06;;;;;;;6.50;2.53;;;;;;;18.96;59.06;100973.44;5051035;28;20871;-61
2021/12/31 02:49:38;;;;;;;7.67;2.57;;;;;;;18.95;58.70;100969.72;5068706;28;20186;-61
2021/12/31 02:52:05;;;;;;;5.73;2.03;;;;;;;18.98;58.46;100968.16;5054091;28;20434;-61
2021/12/31 02:54:31;;;;;;;5.43;1.87;;;;;;;18.98;58.25;100971.88;5058701;28;20506;-61
2021/12/31 02:56:56;;;;;;;7.80;2.23;;;;;;;18.98;58.28;100969.00;5049062;28;20437;-61
2021/12/31 02:59:22;;;;;;;6.27;2.00;;;;;;;18.98;58.51;100966.13;5068171;28;20700;-61
2021/12/31 03:01:47;;;;;;;4.80;1.87;;;;;;;18.99;58.17;100967.78;5067979;28;20694;-61
2021/12/31 03:04:13;;;;;;;7.73;2.63;;;;;;;18.96;58.37;100968.53;5068435;28;20178;-62
2021/12/31 03:06:38;;;;;;;9.63;2.47;;;;;;;19.01;58.28;100973.16;5068205;28;20230;-62
2021/12/31 03:09:04;;;;;;;6.73;2.23;;;;;;;18.96;58.57;100965.66;5068467;28;20627;-61
2021/12/31 03:11:29;;;;;;;5.90;2.20;;;;;;;18.96;58.41;100961.97;5068207;28;20175;-61
2021/12/31 03:13:54;;;;;;;8.00;2.20;;;;;;;18.94;58.49;100961.50;5034148;28;20191;-62
2021/12/31 03:16:21;;;;;;;4.77;1.97;;;;;;;18.94;58.67;100965.22;5033088;28;20540;-61
2021/12/31 03:18:48;;;;;;;10.93;3.20;;;;;;;18.94;58.38;100962.34;5049026;28;20230;-61
2021/12/31 03:21:21;;;;;;;6.27;2.00;;;;;;;18.96;58.37;100973.44;5051088;28;20440;-61
2021/12/31 03:23:47;;;;;;;5.97;2.43;;;;;;;18.97;58.14;100973.03;5067136;28;20467;-61
2021/12/31 03:26:12;;;;;;;5.60;1.83;;;;;;;18.95;58.48;100975.44;5067014;28;20819;-61
2021/12/31 03:28:37;;;;;;;5.20;1.70;;;;;;;18.94;58.30;100979.50;5049322;28;20439;-61
2021/12/31 03:31:03;;;;;;;5.53;2.03;;;;;;;18.94;58.29;100978.66;5068253;28;20190;-61
2021/12/31 03:33:28;;;;;;;4.90;1.90;;;;;;;18.95;58.10;100975.44;5067145;28;20244;-61
2021/12/31 03:35:54;;;;;;;3.90;1.60;;;;;;;18.94;58.84;100973.78;5066276;28;20182;-61
2021/12/31 03:38:19;;;;;;;6.73;2.10;;;;;;;18.95;58.56;100969.72;5068244;28;20186;-61
2021/12/31 03:40:46;;;;;;;6.03;2.13;;;;;;;18.93;58.31;100972.13;5068002;28;20256;-61
2021/12/31 03:43:12;;;;;;;6.00;2.20;;;;;;;18.93;58.50;100975.00;5067409;28;20244;-61
2021/12/31 03:45:37;;;;;;;4.40;2.23;;;;;;;18.95;58.69;100981.16;5068915;28;20820;-61
2021/12/31 03:48:04;;;;;;;5.90;1.70;;;;;;;18.92;58.79;100983.94;5068620;28;20210;-61
2021/12/31 03:50:29;;;;;;;6.10;2.20;;;;;;;18.94;58.06;100979.50;5067715;28;20264;-61
2021/12/31 03:52:55;;;;;;;4.20;1.80;;;;;;;18.93;58.40;100979.88;5068919;28;20429;-61
2021/12/31 03:55:21;;;;;;;8.00;2.10;;;;;;;18.93;58.37;100975.00;5067817;28;20178;-61
2021/12/31 03:57:46;;;;;;;5.60;1.70;;;;;;;18.96;58.96;100970.56;5068353;28;20186;-61
2021/12/31 04:00:13;;;;;;;5.03;1.93;;;;;;;18.93;59.09;100977.84;5066461;28;20968;-61
2021/12/31 04:02:38;;;;;;;7.13;2.07;;;;;;;18.93;58.60;100975.00;5068702;28;20183;-61
2021/12/31 04:05:04;;;;;;;5.80;2.50;;;;;;;18.94;58.40;100972.94;5067835;28;20471;-61
2021/12/31 04:07:29;;;;;;;4.27;1.80;;;;;;;18.93;58.74;100977.84;5066608;28;20249;-61
2021/12/31 04:09:55;;;;;;;4.27;2.00;;;;;;;18.90;58.69;100972.84;5068460;28;20182;-61
2021/12/31 04:12:20;;;;;;;4.80;2.23;;;;;;;18.92;58.25;100970.44;5068125;28;20187;-61
2021/12/31 04:14:45;;;;;;;4.70;1.50;;;;;;;18.92;58.38;100970.44;5071358;28;20604;-61
2021/12/31 04:17:11;;;;;;;5.03;1.83;;;;;;;18.93;58.48;100971.28;5069743;28;20175;-61
2021/12/31 04:19:36;;;;;;;6.13;1.80;;;;;;;18.95;58.28;100969.72;5071706;28;20636;-61
2021/12/31 04:22:02;;;;;;;5.50;1.97;;;;;;;18.93;58.78;100954.13;5080273;28;20701;-61
2021/12/31 04:26:53;;;;;;;4.53;1.60;;;;;;;18.93;59.09;100945.53;5083931;28;20456;-61
2021/12/31 04:29:19;;;;;;;6.47;2.30;;;;;;;18.95;58.04;100949.69;5087988;28;20836;-61
2021/12/31 04:31:44;;;;;;;7.03;1.73;;;;;;;18.98;58.12;100956.72;5071332;28;20272;-61
2021/12/31 04:34:10;;;;;;;5.50;2.00;;;;;;;18.92;58.70;100956.16;5070796;28;20555;-61
2021/12/31 04:36:35;;;;;;;8.93;2.67;;;;;;;18.95;58.19;100949.69;5069962;28;20187;-61
2021/12/31 04:39:00;;;;;;;5.00;2.00;;;;;;;18.96;57.92;100942.75;5070982;28;20623;-61
2021/12/31 04:41:26;;;;;;;6.40;1.60;;;;;;;18.93;58.16;100942.69;5071082;28;20183;-61
2021/12/31 04:43:51;;;;;;;8.53;1.90;;;;;;;18.94;58.00;100941.47;5072013;28;20179;-61
2021/12/31 04:46:17;;;;;;;5.60;1.57;;;;;;;18.96;57.98;100944.81;5069168;28;20211;-61
2021/12/31 04:48:42;;;;;;;4.70;2.10;;;;;;;18.96;58.28;100941.97;5070379;28;20237;-61
2021/12/31 04:51:08;;;;;;;5.67;1.97;;;;;;;18.94;58.16;100948.03;5068715;28;20802;-61
2021/12/31 04:53:34;;;;;;;8.37;1.90;;;;;;;18.94;57.99;100939.47;5071129;28;20187;-61
2021/12/31 04:55:59;;;;;;;8.27;1.87;;;;;;;18.95;58.14;100946.00;5055742;28;20188;-61
2021/12/31 04:58:25;;;;;;;3.73;1.60;;;;;;;18.95;58.34;100957.44;5051276;28;20480;-61
2021/12/31 05:00:50;;;;;;;5.23;2.30;;;;;;;18.96;57.74;100944.81;5070769;28;20218;-61
2021/12/31 05:03:16;;;;;;;4.50;1.70;;;;;;;18.96;58.28;100948.50;5069386;28;20401;-61
2021/12/31 05:05:41;;;;;;;7.40;2.30;;;;;;;18.96;58.11;100945.63;5069864;28;20242;-61
2021/12/31 05:08:07;;;;;;;4.03;1.80;;;;;;;18.97;58.48;100944.41;5069083;28;20253;-61
2021/12/31 05:10:33;;;;;;;6.33;2.20;;;;;;;18.97;58.21;100950.16;5068117;28;20692;-61
2021/12/31 05:13:02;;;;;;;4.17;1.90;;;;;;;18.99;57.77;100956.34;5070038;28;20236;-61
2021/12/31 05:15:33;;;;;;;4.27;1.67;;;;;;;18.95;58.09;100955.41;5051147;28;20512;-61
2021/12/31 05:17:58;;;;;;;3.83;1.77;;;;;;;18.97;57.64;100957.91;5069609;28;20935;-61
2021/12/31 05:20:23;;;;;;;3.50;1.83;;;;;;;18.98;58.19;100951.84;5069260;28;20437;-61
2021/12/31 05:22:49;;;;;;;5.33;1.60;;;;;;;18.94;58.16;100955.78;5069590;28;20186;-61
2021/12/31 05:25:16;;;;;;;4.20;1.80;;;;;;;18.95;57.89;100955.41;5071030;28;20249;-61
2021/12/31 05:27:42;;;;;;;5.00;2.00;;;;;;;18.93;58.28;100943.53;5067797;28;20210;-61
2021/12/31 05:30:07;;;;;;;4.07;1.63;;;;;;;18.97;58.26;100938.69;5069456;28;20487;-61
2021/12/31 05:32:33;;;;;;;4.57;1.63;;;;;;;18.93;58.25;100936.97;5070307;28;20190;-61
2021/12/31 05:34:58;;;;;;;6.90;1.80;;;;;;;18.96;58.06;100939.09;5068742;28;20187;-61
2021/12/31 05:37:24;;;;;;;6.10;2.23;;;;;;;18.95;58.06;100941.13;5068922;28;20178;-61
2021/12/31 05:39:49;;;;;;;4.60;1.67;;;;;;;18.98;57.95;100951.84;5069204;28;20179;-61
2021/12/31 05:42:15;;;;;;;4.93;2.03;;;;;;;18.95;57.74;100943.97;5069288;28;20179;-61
2021/12/31 05:44:40;;;;;;;4.60;1.83;;;;;;;18.94;58.39;100945.19;5069013;28;20519;-61
2021/12/31 05:47:06;;;;;;;4.00;1.80;;;;;;;18.98;57.80;100945.25;5069090;28;20234;-61
2021/12/31 05:49:31;;;;;;;4.27;2.00;;;;;;;18.93;58.01;100946.38;5069779;28;20190;-61
2021/12/31 05:51:57;;;;;;;4.43;1.60;;;;;;;18.95;57.68;100943.97;5069688;28;20182;-61
2021/12/31 05:54:22;;;;;;;2.80;1.23;;;;;;;18.95;58.07;100941.13;5068444;28;20175;-61
2021/12/31 05:56:48;;;;;;;3.20;1.50;;;;;;;18.95;57.74;100923.09;5068911;28;20183;-61
2021/12/31 05:59:13;;;;;;;4.90;1.60;;;;;;;18.96;57.92;100922.75;5050543;28;20226;-61
2021/12/31 06:01:39;;;;;;;4.60;1.67;;;;;;;18.96;57.93;100930.50;5068722;28;20514;-61
2021/12/31 06:04:04;;;;;;;5.30;1.80;;;;;;;18.97;57.73;100927.25;5070080;28;20186;-61
2021/12/31 06:06:30;;;;;;;4.33;1.60;;;;;;;18.94;57.80;100933.72;5056105;28;20202;-62
2021/12/31 06:08:55;;;;;;;4.20;1.80;;;;;;;18.96;57.86;100928.47;5069270;28;20183;-61
2021/12/31 06:11:20;;;;;;;7.27;2.07;;;;;;;18.98;57.70;100922.38;5068777;28;20179;-61
2021/12/31 06:13:55;;;;;;;4.10;1.50;;;;;;;18.96;58.08;100925.59;5068590;28;20191;-61
2021/12/31 06:16:20;;;;;;;4.20;1.60;;;;;;;18.95;58.20;100925.97;5068419;28;20603;-61
2021/12/31 06:18:46;;;;;;;4.80;1.80;;;;;;;18.97;57.63;100930.13;5066639;28;20444;-61
2021/12/31 06:21:11;;;;;;;4.30;1.60;;;;;;;18.98;57.79;100923.22;5069047;28;20212;-61
2021/12/31 06:23:36;;;;;;;3.33;1.57;;;;;;;18.93;57.91;100923.50;5069506;28;20179;-61
2021/12/31 06:26:02;;;;;;;4.40;1.50;;;;;;;18.95;58.14;100923.09;5068983;28;20202;-61
2021/12/31 06:28:27;;;;;;;3.50;1.67;;;;;;;18.95;57.85;100923.94;5068478;28;20182;-61
2021/12/31 06:30:53;;;;;;;2.60;1.23;;;;;;;18.95;57.90;100918.22;5063608;28;20647;-62
2021/12/31 06:33:18;;;;;;;2.63;1.43;;;;;;;18.95;57.77;100912.50;5063340;28;20186;-62
2021/12/31 06:35:44;;;;;;;2.90;1.40;;;;;;;18.96;57.68;100924.78;5068277;28;20187;-61
2021/12/31 06:38:09;;;;;;;2.73;1.20;;;;;;;18.98;57.60;100923.22;5067718;28;20179;-61
2021/12/31 06:40:36;;;;;;;4.20;1.57;;;;;;;18.95;57.88;100929.66;5069887;28;20595;-61
2021/12/31 06:43:01;;;;;;;4.10;1.67;;;;;;;18.97;57.68;100929.31;5069289;28;20210;-61
2021/12/31 06:45:27;;;;;;;4.07;1.60;;;;;;;18.96;57.82;100930.50;5068075;28;20909;-61
2021/12/31 06:47:52;;;;;;;3.23;1.60;;;;;;;18.99;57.58;100932.63;5068062;28;20214;-61
2021/12/31 06:50:18;;;;;;;4.80;1.70;;;;;;;18.97;57.66;100941.56;5068416;28;20160;-61
2021/12/31 06:52:45;;;;;;;4.30;1.77;;;;;;;18.98;57.64;100939.53;5067627;28;20187;-61
2021/12/31 06:55:10;;;;;;;2.53;1.37;;;;;;;18.98;57.79;100943.25;5068118;28;20597;-61
2021/12/31 06:57:36;;;;;;;3.57;1.60;;;;;;;19.01;57.85;100951.06;5068495;28;20413;-62
2021/12/31 07:00:04;;;;;;;4.17;1.40;;;;;;;18.99;57.82;100952.66;5064644;28;20231;-62
2021/12/31 07:02:29;;;;;;;3.90;1.30;;;;;;;18.99;57.83;100942.03;5065989;28;20596;-61
2021/12/31 07:04:55;;;;;;;5.13;1.43;;;;;;;18.97;57.71;100955.06;5068655;28;20429;-61
2021/12/31 07:07:20;;;;;;;5.63;1.80;;;;;;;19.00;57.69;100940.00;5066893;28;20202;-61
2021/12/31 07:09:45;;;;;;;7.73;2.00;;;;;;;18.99;57.41;100942.03;5068479;28;20179;-61
2021/12/31 07:12:11;;;;;;;4.83;1.67;;;;;;;18.97;57.95;100947.28;5067936;28;20187;-61
2021/12/31 07:14:36;;;;;;;2.70;1.20;;;;;;;18.97;57.61;100950.16;5069031;28;20609;-61
2021/12/31 07:17:02;;;;;;;3.10;1.27;;;;;;;18.96;57.83;100942.75;5067237;28;20179;-61
2021/12/31 07:19:27;;;;;;;5.30;1.73;;;;;;;18.99;57.83;100939.19;5068956;28;20203;-61
2021/12/31 07:21:53;;;;;;;5.53;1.37;;;;;;;19.00;57.52;100952.28;5068835;28;20182;-61
2021/12/31 07:24:18;;;;;;;2.97;1.30;;;;;;;18.98;57.94;100954.69;5069466;28;20540;-61
2021/12/31 07:26:44;;;;;;;4.00;1.70;;;;;;;18.99;57.70;100964.94;5066756;28;20570;-61
2021/12/31 07:29:09;;;;;;;4.10;1.63;;;;;;;18.97;57.86;100960.78;5067648;28;20178;-61
2021/12/31 07:31:34;;;;;;;5.47;1.50;;;;;;;18.99;57.93;100958.38;5067843;28;20182;-61
2021/12/31 07:34:00;;;;;;;3.67;1.50;;;;;;;18.99;57.46;100966.97;5066707;28;20183;-61
2021/12/31 07:36:27;;;;;;;3.40;1.20;;;;;;;18.99;57.84;100966.97;5068892;28;20179;-61
2021/12/31 07:38:59;;;;;;;4.73;1.73;;;;;;;18.98;57.98;100966.13;5067013;28;20692;-61
2021/12/31 07:41:25;;;;;;;5.27;1.43;;;;;;;18.98;57.74;100971.03;5069045;28;20421;-61
2021/12/31 07:43:50;;;;;;;3.40;1.63;;;;;;;18.99;57.91;100969.81;5068056;28;20907;-61
2021/12/31 07:46:16;;;;;;;3.27;1.27;;;;;;;19.01;57.50;100973.97;5073080;28;20523;-61
2021/12/31 07:48:41;;;;;;;4.17;1.53;;;;;;;18.99;57.54;100979.25;5070627;28;20666;-62
2021/12/31 07:51:07;;;;;;;3.97;1.53;;;;;;;19.00;57.68;100980.91;5070881;28;20186;-61
2021/12/31 07:53:32;;;;;;;4.33;1.60;;;;;;;19.01;57.46;100985.41;5070334;28;20273;-61
2021/12/31 07:55:58;;;;;;;3.83;1.37;;;;;;;19.00;57.91;100988.63;5072678;28;20175;-61
2021/12/31 07:58:24;;;;;;;3.63;1.73;;;;;;;19.01;57.45;100982.56;5070641;28;20170;-61
2021/12/31 08:00:49;;;;;;;3.50;1.30;;;;;;;19.00;57.48;100989.47;5071203;28;20186;-62
2021/12/31 08:03:15;;;;;;;3.70;1.47;;;;;;;19.01;57.76;100999.72;5071025;28;20186;-61
2021/12/31 08:05:40;;;;;;;2.70;1.60;;;;;;;19.02;57.30;101009.97;5069938;28;20187;-61
2021/12/31 08:08:06;;;;;;;5.13;1.60;;;;;;;19.01;57.46;101002.59;5070805;28;20558;-61
2021/12/31 08:10:32;;;;;;;2.40;1.27;;;;;;;19.02;57.72;101007.09;5071304;28;20171;-61
2021/12/31 08:13:01;;;;;;;4.93;1.63;;;;;;;19.00;57.59;101008.69;5066741;28;20262;-61
2021/12/31 08:15:28;;;;;;;2.93;1.30;;;;;;;19.00;57.77;101009.50;5057450;28;20422;-61
2021/12/31 08:17:56;;;;;;;3.03;1.40;;;;;;;19.00;57.53;101015.25;5064986;28;20491;-61
2021/12/31 08:20:22;;;;;;;3.00;1.20;;;;;;;19.02;57.46;101015.69;5071548;28;20437;-61
2021/12/31 08:22:48;;;;;;;3.90;1.70;;;;;;;19.02;57.86;101018.56;5071009;28;20820;-61
2021/12/31 08:25:13;;;;;;;3.80;1.20;;;;;;;19.00;57.60;101012.38;5070051;28;20515;-61
2021/12/31 08:27:39;;;;;;;3.60;1.83;;;;;;;19.01;57.49;101008.31;5070140;28;20271;-61
2021/12/31 08:30:07;;;;;;;4.07;1.50;;;;;;;19.03;57.49;100993.66;5071548;28;20174;-61
2021/12/31 08:32:33;;;;;;;3.67;1.47;;;;;;;19.02;57.51;100994.84;5050646;28;20190;-62
2021/12/31 08:34:58;;;;;;;4.50;1.50;;;;;;;19.00;57.39;100983.75;5071454;28;20774;-61
2021/12/31 08:37:24;;;;;;;3.50;1.30;;;;;;;19.04;57.52;100983.84;5071512;28;20175;-61
2021/12/31 08:39:49;;;;;;;3.10;1.20;;;;;;;19.04;57.39;100978.13;5070704;28;20175;-61
2021/12/31 08:42:14;;;;;;;4.90;1.73;;;;;;;19.05;57.11;100969.19;5068138;28;20175;-61
2021/12/31 08:44:40;;;;;;;2.87;1.37;;;;;;;19.03;57.53;100965.03;5066403;28;20187;-61
2021/12/31 08:47:05;;;;;;;3.70;1.40;;;;;;;19.05;57.55;100968.34;5067633;28;20198;-62
2021/12/31 08:49:31;;;;;;;4.00;1.30;;;;;;;19.07;57.14;100966.78;5052617;28;20185;-61
2021/12/31 08:51:56;;;;;;;4.07;1.43;;;;;;;19.06;57.08;100965.13;5070447;28;20635;-61
2021/12/31 08:54:21;;;;;;;3.30;1.37;;;;;;;19.03;57.53;100965.88;5071560;28;20156;-61
2021/12/31 08:56:47;;;;;;;6.13;1.87;;;;;;;19.02;57.36;100947.00;5068191;28;20670;-61
2021/12/31 08:59:12;;;;;;;2.50;1.23;;;;;;;19.03;57.19;100950.72;5070591;28;20230;-61
2021/12/31 09:01:38;;;;;;;3.50;1.20;;;;;;;19.04;57.65;100947.50;5069946;28;20183;-61
2021/12/31 09:04:04;;;;;;;1.90;1.10;;;;;;;19.04;57.14;100938.06;5083067;28;20293;-62
2021/12/31 09:06:30;;;;;;;5.53;1.37;;;;;;;19.02;57.42;100940.47;5086133;28;20203;-61
2021/12/31 09:08:55;;;;;;;2.70;1.57;;;;;;;19.03;57.19;100954.41;5070419;28;20570;-62
2021/12/31 09:11:21;;;;;;;4.50;1.13;;;;;;;19.05;57.07;100952.00;5070324;28;20171;-61
2021/12/31 09:13:47;;;;;;;3.03;1.23;;;;;;;19.05;57.56;100956.88;5070378;28;20217;-61
2021/12/31 09:16:12;;;;;;;3.30;1.47;;;;;;;19.04;57.17;100956.06;5069932;28;20175;-61
2021/12/31 09:18:38;;;;;;;4.83;1.60;;;;;;;19.05;57.34;100960.59;5068845;28;20429;-61
2021/12/31 09:21:03;;;;;;;2.80;1.40;;;;;;;19.08;57.14;100961.88;5069932;28;20182;-61
2021/12/31 09:23:29;;;;;;;2.80;1.63;;;;;;;19.05;57.44;100960.59;5070610;28;20576;-61
2021/12/31 09:25:55;;;;;;;3.20;1.27;;;;;;;19.06;57.26;100952.84;5068837;28;20552;-61
2021/12/31 09:28:21;;;;;;;3.00;1.30;;;;;;;19.06;57.07;100950.00;5070588;28;20818;-61
2021/12/31 09:30:46;;;;;;;2.90;1.23;;;;;;;19.06;57.14;100953.66;5069714;28;20418;-61
2021/12/31 09:33:12;;;;;;;2.90;1.33;;;;;;;19.04;57.71;100953.22;5070882;28;20160;-61
2021/12/31 09:35:39;;;;;;;4.13;1.33;;;;;;;19.06;57.19;100956.53;5069071;28;20578;-61
2021/12/31 09:38:08;;;;;;;2.43;1.20;;;;;;;19.06;57.33;100952.84;5069606;28;20171;-61
2021/12/31 09:40:37;;;;;;;4.90;1.60;;;;;;;19.08;57.31;100959.03;5069415;28;20532;-61
2021/12/31 09:43:09;;;;;;;2.57;1.47;;;;;;;19.10;57.28;100970.94;5065784;28;20436;-61
2021/12/31 09:45:35;;;;;;;1.93;1.10;;;;;;;19.11;56.91;100979.16;5068806;28;20502;-61
2021/12/31 09:48:01;;;;;;;2.83;1.20;;;;;;;19.09;57.21;100970.13;5069691;28;20849;-62
2021/12/31 09:50:27;;;;;;;2.90;1.57;;;;;;;19.10;56.88;100971.78;5069293;28;20421;-61
2021/12/31 09:52:54;;;;;;;3.00;1.27;;;;;;;19.08;57.12;100967.63;5051477;28;20175;-61
2021/12/31 09:55:45;;;;;;;3.03;1.57;;;;;;;19.09;57.31;100954.97;5069116;28;20727;-61
2021/12/31 09:58:11;;;;;;;3.47;1.30;;;;;;;19.10;57.16;100963.19;5067768;28;20429;-62
2021/12/31 10:00:47;;;;;;;3.20;1.50;;;;;;;19.10;57.30;100960.31;5052146;28;20433;-61
2021/12/31 10:03:26;;;;;;;2.47;1.50;;;;;;;19.10;57.35;100966.03;5068053;28;20416;-61
2021/12/31 10:05:59;;;;;;;3.40;1.37;;;;;;;19.14;56.92;100971.84;5068439;28;20554;-61
2021/12/31 10:08:26;;;;;;;3.37;1.10;;;;;;;19.14;57.11;100966.13;5067522;28;20464;-62
2021/12/31 10:11:20;;;;;;;2.73;1.20;;;;;;;19.13;57.08;100953.88;5067329;28;20551;-61
2021/12/31 10:13:51;;;;;;;4.10;1.60;;;;;;;19.12;57.33;100940.72;5067972;28;20749;-61
2021/12/31 10:16:30;;;;;;;1.83;1.00;;;;;;;19.16;56.85;100947.38;5067837;28;20429;-61
2021/12/31 10:19:11;;;;;;;2.73;1.30;;;;;;;19.15;56.76;100934.28;5068944;28;20433;-61
2021/12/31 10:21:43;;;;;;;2.77;1.17;;;;;;;19.17;56.81;100931.88;5067958;28;20429;-61
2021/12/31 10:24:38;;;;;;;2.90;1.23;;;;;;;19.17;56.82;100937.59;5043465;28;20527;-61
2021/12/31 10:27:09;;;;;;;2.27;1.07;;;;;;;19.17;56.89;100942.50;5067131;28;20466;-61
2021/12/31 10:29:35;;;;;;;4.83;1.57;;;;;;;19.16;56.83;100949.44;5069120;28;20418;-61
2021/12/31 10:32:00;;;;;;;2.73;1.33;;;;;;;19.18;57.27;100945.00;5068952;28;20413;-61
2021/12/31 10:34:29;;;;;;;2.60;1.07;;;;;;;19.19;56.83;100948.69;5067578;28;20178;-61
2021/12/31 10:36:56;;;;;;;2.53;1.20;;;;;;;19.20;56.68;100942.59;5067914;28;20547;-61
2021/12/31 10:39:23;;;;;;;3.10;1.43;;;;;;;19.18;56.76;100936.41;5063955;28;20465;-61
2021/12/31 10:41:50;;;;;;;3.77;1.37;;;;;;;19.16;57.04;100924.50;5068847;28;20456;-61
2021/12/31 10:44:15;;;;;;;3.43;1.30;;;;;;;19.16;57.08;100913.03;5068652;28;20843;-61
2021/12/31 10:46:41;;;;;;;3.00;1.20;;;;;;;19.17;56.92;100906.09;5051218;28;20456;-61
2021/12/31 10:49:10;;;;;;;2.70;1.27;;;;;;;19.20;56.95;100913.13;5073129;28;20182;-61
2021/12/31 10:51:44;;;;;;;1.90;1.03;;;;;;;19.16;56.85;100913.03;5068575;28;20269;-61
2021/12/31 10:54:47;;;;;;;2.73;1.23;;;;;;;19.20;56.71;100919.69;5063655;28;20449;-61
2021/12/31 10:57:15;;;;;;;2.47;1.30;;;;;;;19.18;56.87;100907.78;5062091;28;20916;-61
2021/12/31 10:59:40;;;;;;;2.90;1.30;;;;;;;19.19;57.18;100900.88;5050072;28;20469;-61
2021/12/31 11:02:06;;;;;;;2.00;0.90;;;;;;;19.05;57.27;100909.09;5068190;28;20583;-60
2021/12/31 11:04:32;;;;;;;2.37;1.20;;;;;;;18.83;57.28;100912.59;5064862;28;20182;-61
2021/12/31 11:06:58;;;;;;;5.00;1.83;;;;;;;18.86;57.63;100902.44;5066847;28;20214;-60
2021/12/31 11:09:24;;;;;;;3.30;1.70;;;;;;;18.85;57.27;100898.75;5067144;28;20808;-61
2021/12/31 11:11:49;;;;;;;4.47;2.20;;;;;;;18.86;57.61;100899.59;5067366;28;20167;-61
2021/12/31 11:14:16;;;;;;;3.50;1.73;;;;;;;18.82;57.67;100896.59;5066392;28;20441;-61
2021/12/31 11:16:41;;;;;;;3.77;2.20;;;;;;;18.80;57.54;100892.44;5048319;28;20171;-62
2021/12/31 11:19:08;;;;;;;6.27;2.43;;;;;;;18.95;57.57;100889.59;5064635;28;20440;-61
2021/12/31 11:21:33;;;;;;;7.43;2.50;;;;;;;19.19;57.38;100898.00;5067122;28;20677;-61
2021/12/31 11:24:30;;;;;;;3.80;2.07;;;;;;;19.52;56.67;100894.75;5049755;28;20433;-62
2021/12/31 11:26:57;;;;;;;5.50;2.37;;;;;;;19.62;57.61;100899.88;5047235;28;20230;-62
2021/12/31 11:29:23;;;;;;;6.03;2.77;;;;;;;19.70;57.43;100910.28;5068514;28;20413;-61